Lampang, Thailand
Current Conditions -  °F | °C
As of 6:00 PM on Monday 20 Oct 2014 (Local Time) from VTCC Reporting Station
Broken Clouds Broken Clouds  
Wind Chill: 81°   Ceiling: 4000
Heat Index: 83°   Visibility: 6mi
Dew Point: 68°   Wind: 7mph
Humidity: 65%   Direction: 220°SW
Pressure: 29.91"   Gusts: NA
Location:  18.29°N, 99.48°E
Report Text: VTCC 201100Z 22006KT 9000 BKN040 27/20 Q1013 A2992 NOSIG
Loading
Personal Weather Stations






























Interactive Weather Map New forecast layout! Learn more

10-Day Weather Forecast

Advertisements
Track Severe Weather on mobile